Flight Track Log - Related Links

Times and Time Zones

All times are in EDT time to prevent confusion due to time zone crossing. See the JTA613 flight status page for this flight to view local times or setup timezone preferences in your user account.

Time Position Orientation Groundspeed Altitude Reporting Facility
EDT Latitude Longitude Course Direction KTS MPH feet Rate Location/Type
Wed 01:43:00 AM 26.0490 127.3619 240° Southwest  Level Estimated
Wed 01:44:00 AM 25.9999 127.2674 240° Southwest  Level Estimated
Wed 01:45:00 AM 25.9508 127.1730 240° Southwest  Level Estimated
Wed 01:46:00 AM 25.9016 127.0786 240° Southwest  Level Estimated
Wed 01:47:00 AM 25.8524 126.9843 240° Southwest  Level Estimated
Wed 01:48:00 AM 25.8030 126.8901 240° Southwest  Level Estimated
Wed 01:49:00 AM 25.7537 126.7960 240° Southwest  Level Estimated
Wed 01:50:00 AM 25.7042 126.7020 240° Southwest  Level Estimated
Wed 01:51:00 AM 25.6548 126.6080 240° Southwest  Level Estimated
Wed 01:52:00 AM 25.6052 126.5142 240° Southwest  Level Estimated
Wed 01:53:00 AM 25.5556 126.4204 240° Southwest  Level Estimated
Wed 01:54:00 AM 25.5059 126.3267 240° Southwest  Level Estimated
Wed 01:55:00 AM 25.4562 126.2330 240° Southwest  Level Estimated
Wed 01:56:00 AM 25.4064 126.1394 240° Southwest  Level Estimated
Wed 01:57:00 AM 25.3566 126.0460 239° Southwest  Level Estimated
Wed 01:58:00 AM 25.3066 125.9525 239° Southwest  Level Estimated
Wed 01:59:00 AM 25.2567 125.8592 239° Southwest  Level Estimated
Wed 02:00:00 AM 25.2066 125.7660 239° Southwest  Level Estimated
Wed 02:01:00 AM 25.1566 125.6728 239° Southwest  Level Estimated
Wed 02:02:00 AM 25.1064 125.5797 239° Southwest  Level Estimated
Wed 02:03:00 AM 25.0501 125.4754 239° Southwest  Level Estimated
Wed 02:04:00 AM 24.9938 125.3712 239° Southwest  Level Estimated
Wed 02:05:00 AM 24.9373 125.2671 239° Southwest  Level Estimated
Wed 02:06:00 AM 24.8808 125.1630 239° Southwest  Level Estimated
Wed 02:07:00 AM 24.8242 125.0591 239° Southwest  Level Estimated
Wed 02:08:00 AM 24.7676 124.9553 239° Southwest  Level Estimated
Wed 02:09:00 AM 24.7109 124.8516 239° Southwest  Level Estimated
Wed 02:10:00 AM 24.6541 124.7479 239° Southwest  Level Estimated
Wed 02:11:00 AM 24.5972 124.6444 239° Southwest  Level Estimated
Wed 02:12:00 AM 24.5403 124.5410 239° Southwest  Level Estimated
Wed 02:13:00 AM 24.4833 124.4376 239° Southwest  Level Estimated
Wed 02:14:00 AM 24.4262 124.3344 239° Southwest  Level Estimated
Wed 02:15:00 AM 24.3690 124.2312 239° Southwest  Level Estimated
Wed 02:16:00 AM 24.3445 124.1870 239° Southwest  Level Estimated
Wed 02:17:00 AM 24.3445 124.1870 29° Northeast  Level Estimated
Wed 02:18:00 AM 24.3445 124.1870 29° Northeast  Level Estimated
Wed 02:19:00 AM 24.3445 124.1870 29° Northeast  Level Estimated
Wed 02:20:00 AM 24.3445 124.1870 29° Northeast  Level Estimated
Wed 02:21:00 AM 24.3445 124.1870 29° Northeast  Level Estimated
Wed 02:22:00 AM 24.3445 124.1870 29° Northeast  Level Estimated
Wed 02:23:00 AM 24.3445 124.1870 29° Northeast  Level Estimated
Wed 02:24:00 AM 24.3445 124.1870 29° Northeast  Level Estimated

Login

Don't have an account? Register now (free) for customized features, flight alerts, and more!